createdAt,value
2022-12-03T00:02:15.605Z,44.90
2022-12-03T00:04:42.277Z,45.33
2022-12-03T00:07:08.731Z,41.35
2022-12-03T00:09:35.109Z,45.03
2022-12-03T00:12:01.565Z,47.03
2022-12-03T00:14:27.996Z,46.45
2022-12-03T00:16:54.384Z,56.17
2022-12-03T00:19:20.955Z,52.70
2022-12-03T00:21:47.382Z,47.22
2022-12-03T00:24:13.765Z,55.80
2022-12-03T00:26:40.156Z,48.35
2022-12-03T00:29:06.612Z,51.10
2022-12-03T00:31:33.034Z,55.45
2022-12-03T00:33:59.660Z,61.95
2022-12-03T00:36:26.056Z,61.13
2022-12-03T00:38:52.486Z,55.97
2022-12-03T00:41:18.941Z,61.33
2022-12-03T00:43:45.450Z,59.58
2022-12-03T00:46:13.881Z,64.05
2022-12-03T00:48:42.142Z,55.92
2022-12-03T00:51:08.541Z,64.78
2022-12-03T00:53:35.618Z,58.22
2022-12-03T00:56:02.169Z,65.07
2022-12-03T00:58:28.665Z,62.78
2022-12-03T01:00:55.193Z,65.82
2022-12-03T01:03:21.582Z,65.95
2022-12-03T01:05:48.020Z,69.32
2022-12-03T01:08:14.630Z,62.40
2022-12-03T01:10:42.704Z,70.00
2022-12-03T01:13:09.202Z,73.57
2022-12-03T01:15:35.801Z,64.72
2022-12-03T01:18:02.296Z,67.13
2022-12-03T01:20:28.928Z,64.85
2022-12-03T01:22:55.352Z,70.05
2022-12-03T01:25:21.995Z,66.35
2022-12-03T01:27:48.485Z,66.53
2022-12-03T01:30:14.937Z,67.63
2022-12-03T01:32:41.428Z,63.25
2022-12-03T01:35:08.225Z,61.97
2022-12-03T01:37:34.719Z,61.35
2022-12-03T01:40:01.224Z,62.15
2022-12-03T01:42:32.433Z,64.13
2022-12-03T01:44:59.297Z,63.45
2022-12-03T01:47:31.271Z,63.05
2022-12-03T01:50:05.934Z,59.45
2022-12-03T01:52:35.485Z,58.20
2022-12-03T01:55:07.015Z,59.53
2022-12-03T01:57:42.473Z,61.27
2022-12-03T02:00:17.393Z,56.70
2022-12-03T02:02:44.468Z,56.63
2022-12-03T02:05:31.872Z,69.70
2022-12-03T02:07:59.295Z,63.53
2022-12-03T02:10:32.891Z,66.90
2022-12-03T02:13:05.505Z,67.55
2022-12-03T02:15:31.872Z,63.47
2022-12-03T02:17:58.394Z,67.55
2022-12-03T02:20:24.836Z,71.65
2022-12-03T02:22:59.891Z,74.95
2022-12-03T02:25:28.726Z,74.05
2022-12-03T02:27:55.769Z,73.68
2022-12-03T02:30:24.069Z,80.57
2022-12-03T02:32:51.844Z,77.90
2022-12-03T02:35:23.873Z,80.97
2022-12-03T02:37:53.044Z,85.00
2022-12-03T02:40:22.268Z,79.65
2022-12-03T02:42:49.550Z,80.70
2022-12-03T02:45:23.004Z,79.10
2022-12-03T02:47:52.028Z,78.38
2022-12-03T02:50:23.287Z,70.72
2022-12-03T02:52:51.050Z,86.85
2022-12-03T02:55:17.894Z,82.10
2022-12-03T02:57:46.671Z,83.28
2022-12-03T03:00:13.602Z,78.28
2022-12-03T03:02:40.468Z,84.45
2022-12-03T03:05:07.753Z,80.70
2022-12-03T03:07:35.118Z,72.75
2022-12-03T03:10:02.436Z,80.78
2022-12-03T03:12:28.828Z,79.15
2022-12-03T03:14:55.542Z,81.50
2022-12-03T03:17:22.097Z,77.40
2022-12-03T03:19:48.505Z,80.95
2022-12-03T03:22:14.940Z,74.15
2022-12-03T03:24:41.389Z,72.68
2022-12-03T03:27:07.844Z,67.72
2022-12-03T03:29:34.820Z,74.32
2022-12-03T03:32:02.288Z,69.35
2022-12-03T03:34:29.715Z,71.15
2022-12-03T03:36:56.225Z,70.75
2022-12-03T03:39:23.091Z,70.05
2022-12-03T03:41:49.489Z,65.68
2022-12-03T03:44:15.949Z,67.43
2022-12-03T03:46:42.677Z,68.13
2022-12-03T03:49:10.466Z,65.90
2022-12-03T03:51:37.491Z,68.75
2022-12-03T03:54:05.018Z,62.45
2022-12-03T03:56:32.679Z,64.03
2022-12-03T03:58:59.303Z,67.43
2022-12-03T04:01:26.980Z,60.17
2022-12-03T04:03:55.738Z,62.35
2022-12-03T04:06:22.131Z,62.67
2022-12-03T04:08:48.618Z,60.40
2022-12-03T04:11:33.657Z,66.55
2022-12-03T04:14:00.078Z,62.83
2022-12-03T04:16:26.527Z,67.88
2022-12-03T04:18:53.113Z,69.90
2022-12-03T04:21:40.827Z,69.38
2022-12-03T04:24:08.582Z,64.38
2022-12-03T04:26:53.762Z,70.95
2022-12-03T04:29:20.876Z,73.60
2022-12-03T04:32:05.954Z,75.68
2022-12-03T04:34:51.100Z,72.50
2022-12-03T04:37:17.722Z,73.25
2022-12-03T04:39:44.139Z,78.50
2022-12-03T04:42:10.646Z,79.30
2022-12-03T04:44:37.278Z,84.85
2022-12-03T04:47:06.899Z,74.80
2022-12-03T04:49:34.169Z,85.82
2022-12-03T04:52:00.700Z,80.22
2022-12-03T04:54:27.645Z,81.45
2022-12-03T04:56:54.219Z,81.90
2022-12-03T04:59:20.755Z,82.43
2022-12-03T05:01:47.229Z,80.13
2022-12-03T05:04:14.612Z,79.32
2022-12-03T05:06:41.487Z,75.60
2022-12-03T05:09:08.423Z,72.63
2022-12-03T05:11:34.845Z,72.45
2022-12-03T05:14:01.211Z,75.70
2022-12-03T05:16:27.693Z,75.07
2022-12-03T05:18:54.179Z,69.10
2022-12-03T05:21:20.729Z,66.88
2022-12-03T05:23:47.152Z,70.18
2022-12-03T05:26:13.612Z,73.32
2022-12-03T05:28:40.046Z,70.00
2022-12-03T05:31:06.792Z,71.35
2022-12-03T05:33:33.282Z,72.90
2022-12-03T05:35:59.741Z,65.85
2022-12-03T05:38:26.229Z,65.47
2022-12-03T05:40:52.721Z,66.45
2022-12-03T05:43:19.158Z,69.95
2022-12-03T05:45:45.638Z,69.20
2022-12-03T05:48:14.429Z,66.43
2022-12-03T05:50:44.234Z,71.88
2022-12-03T05:53:11.770Z,71.75
2022-12-03T05:55:38.570Z,72.72
2022-12-03T05:58:05.485Z,70.55
2022-12-03T06:00:39.046Z,69.32
2022-12-03T06:03:23.717Z,72.32
2022-12-03T06:05:50.323Z,69.47
2022-12-03T06:08:16.742Z,74.88
2022-12-03T06:10:43.208Z,68.20
2022-12-03T06:13:09.704Z,70.10
2022-12-03T06:15:41.971Z,73.55
2022-12-03T06:18:10.104Z,72.35
2022-12-03T06:20:36.508Z,68.80
2022-12-03T06:23:02.974Z,74.10
2022-12-03T06:25:29.341Z,70.78
2022-12-03T06:27:55.684Z,72.38
2022-12-03T06:30:22.140Z,73.10
2022-12-03T06:32:48.571Z,70.95
2022-12-03T06:35:14.992Z,66.00
2022-12-03T06:37:41.407Z,72.82
2022-12-03T06:40:08.408Z,63.80
2022-12-03T06:42:34.804Z,67.78
2022-12-03T06:45:01.158Z,62.63
2022-12-03T06:47:27.602Z,66.30
2022-12-03T06:49:54.004Z,65.18
2022-12-03T06:52:20.383Z,62.67
2022-12-03T06:54:46.932Z,64.53
2022-12-03T06:57:13.392Z,63.97
2022-12-03T06:59:39.741Z,61.35
2022-12-03T07:02:06.394Z,60.83
2022-12-03T07:04:32.834Z,58.97
2022-12-03T07:06:59.367Z,54.50
2022-12-03T07:09:25.810Z,51.67
2022-12-03T07:11:52.542Z,49.22
2022-12-03T07:14:19.006Z,50.50
2022-12-03T07:16:45.491Z,45.75
2022-12-03T07:19:12.008Z,49.30
2022-12-03T07:21:38.698Z,47.67
2022-12-03T07:24:05.945Z,48.22
2022-12-03T07:26:32.488Z,44.70
2022-12-03T07:28:58.948Z,40.55
2022-12-03T07:31:25.478Z,43.25
2022-12-03T07:33:51.954Z,46.40
2022-12-03T07:36:18.334Z,43.28
2022-12-03T07:38:44.802Z,49.35
2022-12-03T07:41:11.255Z,45.35
2022-12-03T07:43:37.657Z,50.45
2022-12-03T07:46:04.118Z,48.80
2022-12-03T07:48:30.620Z,58.55
2022-12-03T07:50:57.043Z,53.97
2022-12-03T07:53:23.442Z,54.40
2022-12-03T07:55:49.852Z,53.85
2022-12-03T07:58:16.212Z,55.85
2022-12-03T08:00:42.728Z,58.60
2022-12-03T08:03:10.345Z,59.63
2022-12-03T08:05:36.745Z,59.65
2022-12-03T08:08:03.235Z,61.15
2022-12-03T08:10:29.838Z,61.58
2022-12-03T08:12:58.506Z,62.97
2022-12-03T08:15:26.570Z,63.70
2022-12-03T08:18:00.555Z,59.88
2022-12-03T08:20:30.191Z,70.10
2022-12-03T08:22:57.406Z,68.50
2022-12-03T08:25:29.328Z,64.15
2022-12-03T08:28:18.910Z,64.65
2022-12-03T08:31:07.166Z,64.35
2022-12-03T08:33:35.975Z,65.38
2022-12-03T08:36:13.089Z,69.53
2022-12-03T08:38:39.576Z,71.88
2022-12-03T08:41:15.568Z,73.38
2022-12-03T08:43:43.830Z,66.15
2022-12-03T08:46:17.501Z,67.05
2022-12-03T08:48:48.697Z,70.45
2022-12-03T08:51:21.820Z,67.63
2022-12-03T08:53:50.737Z,70.32
2022-12-03T08:56:23.381Z,69.15
2022-12-03T08:59:28.777Z,70.75
2022-12-03T09:01:55.931Z,62.63
2022-12-03T09:04:31.472Z,64.55
2022-12-03T09:06:58.208Z,59.72
2022-12-03T09:09:24.932Z,62.67
2022-12-03T09:11:52.095Z,58.47
2022-12-03T09:14:21.108Z,59.97
2022-12-03T09:16:47.859Z,60.08
2022-12-03T09:19:14.425Z,63.40
2022-12-03T09:21:40.876Z,62.53
2022-12-03T09:24:07.419Z,69.40
2022-12-03T09:26:33.777Z,73.45
2022-12-03T09:29:00.162Z,71.97
2022-12-03T09:31:26.635Z,70.85
2022-12-03T09:33:53.074Z,74.05
2022-12-03T09:36:19.447Z,79.78
2022-12-03T09:38:47.818Z,68.35
2022-12-03T09:41:14.789Z,75.57
2022-12-03T09:44:03.364Z,80.28
2022-12-03T09:46:27.661Z,84.13
2022-12-03T09:48:55.409Z,80.80
2022-12-03T09:51:21.819Z,69.75
2022-12-03T09:53:48.387Z,80.05
2022-12-03T09:56:22.857Z,71.97
2022-12-03T09:58:49.874Z,70.63
2022-12-03T10:01:16.542Z,69.57
2022-12-03T10:03:46.464Z,69.78
2022-12-03T10:06:17.289Z,74.78
2022-12-03T10:08:48.065Z,67.38
2022-12-03T10:11:15.153Z,70.55
2022-12-03T10:13:41.807Z,70.28
2022-12-03T10:16:15.252Z,67.32
2022-12-03T10:18:44.937Z,66.85
2022-12-03T10:21:18.518Z,77.18
2022-12-03T10:23:48.481Z,68.70
2022-12-03T10:26:18.680Z,68.20
2022-12-03T10:28:46.837Z,72.75
2022-12-03T10:31:14.202Z,65.43
2022-12-03T10:33:44.637Z,63.15
2022-12-03T10:36:21.127Z,68.15
2022-12-03T10:39:06.902Z,72.57
2022-12-03T10:41:33.431Z,73.47
2022-12-03T10:44:19.564Z,77.20
2022-12-03T10:46:47.490Z,72.65
2022-12-03T10:49:19.583Z,69.43
2022-12-03T10:51:47.764Z,75.68
2022-12-03T10:54:20.168Z,76.10
2022-12-03T10:56:47.772Z,72.03
2022-12-03T10:59:21.253Z,78.45
2022-12-03T11:01:48.528Z,80.55
2022-12-03T11:04:21.444Z,85.82
2022-12-03T11:06:49.434Z,86.65
2022-12-03T11:09:28.478Z,75.03
2022-12-03T11:11:55.006Z,86.15
2022-12-03T11:14:56.521Z,79.72
2022-12-03T11:17:51.769Z,76.28
2022-12-03T11:20:22.383Z,77.53
2022-12-03T11:22:50.720Z,81.68
2022-12-03T11:25:47.007Z,85.32
2022-12-03T11:28:13.472Z,81.93
2022-12-03T11:30:48.839Z,82.75
2022-12-03T11:33:32.740Z,83.07
2022-12-03T11:36:05.118Z,93.43
2022-12-03T11:38:38.580Z,93.03
2022-12-03T11:41:14.943Z,88.30
2022-12-03T11:43:53.586Z,89.28
2022-12-03T11:46:27.311Z,99.07
2022-12-03T11:48:56.016Z,94.55
2022-12-03T11:51:25.014Z,95.55
2022-12-03T11:53:52.913Z,88.22
2022-12-03T11:56:27.161Z,92.10
2022-12-03T11:59:01.409Z,90.38
2022-12-03T12:01:39.412Z,97.15
2022-12-03T12:04:26.448Z,94.55
2022-12-03T12:06:53.532Z,96.47
2022-12-03T12:09:52.474Z,95.22
2022-12-03T12:12:38.548Z,98.10
2022-12-03T12:15:33.255Z,95.55
2022-12-03T12:18:37.255Z,84.53
2022-12-03T12:21:43.796Z,94.40
2022-12-03T12:24:30.951Z,102.25
2022-12-03T12:27:03.354Z,89.07
2022-12-03T12:29:29.756Z,95.50
2022-12-03T12:32:17.418Z,85.45
2022-12-03T12:34:46.399Z,85.60
2022-12-03T12:37:15.431Z,86.68
2022-12-03T12:39:41.904Z,87.43
2022-12-03T12:42:30.783Z,91.10
2022-12-03T12:45:00.185Z,81.03
2022-12-03T12:47:28.936Z,82.50
2022-12-03T12:49:55.776Z,85.40
2022-12-03T12:52:22.315Z,83.38
2022-12-03T12:54:48.853Z,87.25
2022-12-03T12:57:21.976Z,85.85
2022-12-03T12:59:49.085Z,84.75
2022-12-03T13:02:33.239Z,83.10
2022-12-03T13:05:02.142Z,84.75
2022-12-03T13:07:28.697Z,87.53
2022-12-03T13:09:57.004Z,87.03
2022-12-03T13:12:23.939Z,84.50
2022-12-03T13:15:02.055Z,78.05
2022-12-03T13:17:28.680Z,87.07
2022-12-03T13:20:05.549Z,80.95
2022-12-03T13:22:33.845Z,84.13
2022-12-03T13:25:03.879Z,90.10
2022-12-03T13:27:30.296Z,89.45
2022-12-03T13:30:02.216Z,79.22
2022-12-03T13:32:31.528Z,86.97
2022-12-03T13:35:10.147Z,82.82
2022-12-03T13:37:37.123Z,81.72
2022-12-03T13:40:26.799Z,88.20
2022-12-03T13:42:55.009Z,86.18
2022-12-03T13:45:39.954Z,84.60
2022-12-03T13:48:22.951Z,79.95
2022-12-03T13:50:50.526Z,89.68
2022-12-03T13:53:28.545Z,85.82
2022-12-03T13:56:04.374Z,84.53
2022-12-03T13:58:30.760Z,92.40
2022-12-03T14:00:57.298Z,88.05
2022-12-03T14:03:23.711Z,91.93
2022-12-03T14:05:50.115Z,99.32
2022-12-03T14:08:16.682Z,95.05
2022-12-03T14:10:43.174Z,92.10
2022-12-03T14:13:10.160Z,89.20
2022-12-03T14:15:38.179Z,93.57
2022-12-03T14:18:04.774Z,90.28
2022-12-03T14:20:31.200Z,91.95
2022-12-03T14:22:59.512Z,89.65
2022-12-03T14:25:26.341Z,94.15
2022-12-03T14:27:52.774Z,89.38
2022-12-03T14:30:19.141Z,89.80
2022-12-03T14:32:45.663Z,92.53
2022-12-03T14:35:12.076Z,85.53
2022-12-03T14:37:38.652Z,94.10
2022-12-03T14:40:07.089Z,93.63
2022-12-03T14:42:33.545Z,95.05
2022-12-03T14:44:59.948Z,92.80
2022-12-03T14:47:26.341Z,90.15
2022-12-03T14:49:53.263Z,101.53
2022-12-03T14:52:20.098Z,91.22
2022-12-03T14:54:46.472Z,96.10
2022-12-03T14:57:14.288Z,93.88
2022-12-03T14:59:44.630Z,91.65
2022-12-03T15:02:11.613Z,91.18
2022-12-03T15:04:39.435Z,89.63
2022-12-03T15:07:06.045Z,89.82
2022-12-03T15:09:32.503Z,96.85
2022-12-03T15:11:59.877Z,80.82
2022-12-03T15:14:26.300Z,88.88
2022-12-03T15:16:52.824Z,90.18
2022-12-03T15:19:19.307Z,87.95
2022-12-03T15:21:45.737Z,93.10
2022-12-03T15:24:12.334Z,89.55
2022-12-03T15:26:38.739Z,85.25
2022-12-03T15:29:05.209Z,94.63
2022-12-03T15:31:31.950Z,84.15
2022-12-03T15:33:58.552Z,86.07
2022-12-03T15:36:24.964Z,86.65
2022-12-03T15:38:51.421Z,86.70
2022-12-03T15:41:21.288Z,90.40
2022-12-03T15:43:52.247Z,84.65
2022-12-03T15:46:19.907Z,86.57
2022-12-03T15:48:46.765Z,87.43
2022-12-03T15:51:13.552Z,90.35
2022-12-03T15:53:40.295Z,88.20
2022-12-03T15:56:07.187Z,88.63
2022-12-03T15:58:33.576Z,84.95
2022-12-03T16:01:00.160Z,88.82
2022-12-03T16:03:26.777Z,94.82
2022-12-03T16:05:53.211Z,88.97
2022-12-03T16:08:19.808Z,93.78
2022-12-03T16:10:46.313Z,84.55
2022-12-03T16:13:12.735Z,91.30
2022-12-03T16:15:39.210Z,88.80
2022-12-03T16:18:05.679Z,89.85
2022-12-03T16:20:32.100Z,88.80
2022-12-03T16:22:58.526Z,91.57
2022-12-03T16:25:24.929Z,99.50
2022-12-03T16:27:51.379Z,85.60
2022-12-03T16:30:17.876Z,95.68
2022-12-03T16:32:44.393Z,91.18
2022-12-03T16:35:10.784Z,88.05
2022-12-03T16:37:37.301Z,91.78
2022-12-03T16:40:04.023Z,88.35
2022-12-03T16:42:30.461Z,91.05
2022-12-03T16:45:02.897Z,89.25
2022-12-03T16:50:00.761Z,93.22
2022-12-03T16:52:27.243Z,96.95
2022-12-03T16:54:53.676Z,94.43
2022-12-03T16:57:20.101Z,93.82
2022-12-03T16:59:46.805Z,93.50
2022-12-03T17:02:13.833Z,95.75
2022-12-03T17:04:40.455Z,100.30
2022-12-03T17:07:06.889Z,95.18
2022-12-03T17:09:33.262Z,97.80
2022-12-03T17:11:59.804Z,98.55
2022-12-03T17:14:31.449Z,96.25
2022-12-03T17:16:59.627Z,99.85
2022-12-03T17:19:26.069Z,100.70
2022-12-03T17:21:53.978Z,97.20
2022-12-03T17:24:21.265Z,106.38
2022-12-03T17:26:47.661Z,99.28
2022-12-03T17:29:14.307Z,102.72
2022-12-03T17:31:42.431Z,99.40
2022-12-03T17:34:09.102Z,91.97
2022-12-03T17:36:35.520Z,100.13
2022-12-03T17:39:01.942Z,104.22
2022-12-03T17:41:28.392Z,99.45
2022-12-03T17:43:54.873Z,98.63
2022-12-03T17:46:21.388Z,96.97
2022-12-03T17:48:47.911Z,104.80
2022-12-03T17:51:14.624Z,97.65
2022-12-03T17:53:41.180Z,102.75
2022-12-03T17:56:07.601Z,100.35
2022-12-03T17:58:34.638Z,97.00
2022-12-03T18:01:03.162Z,101.90
2022-12-03T18:03:30.090Z,92.57
2022-12-03T18:05:56.679Z,95.57
2022-12-03T18:08:23.152Z,96.68
2022-12-03T18:10:49.744Z,102.75
2022-12-03T18:13:16.559Z,106.38
2022-12-03T18:15:43.022Z,103.55
2022-12-03T18:18:09.532Z,109.35
2022-12-03T18:20:36.029Z,109.38
2022-12-03T18:23:02.620Z,110.93
2022-12-03T18:25:29.110Z,106.03
2022-12-03T18:27:55.649Z,109.45
2022-12-03T18:30:22.265Z,106.53
2022-12-03T18:32:49.019Z,105.28
2022-12-03T18:35:15.478Z,107.45
2022-12-03T18:37:41.877Z,107.35
2022-12-03T18:40:16.443Z,109.40
2022-12-03T18:42:42.884Z,109.22
2022-12-03T18:45:13.084Z,106.35
2022-12-03T18:47:39.631Z,105.32
2022-12-03T18:50:07.304Z,107.90
2022-12-03T18:52:33.895Z,107.45
2022-12-03T18:55:00.292Z,107.03
2022-12-03T18:57:26.733Z,102.50
2022-12-03T18:59:53.433Z,107.82
2022-12-03T19:03:01.903Z,106.90
2022-12-03T19:05:09.865Z,108.90
2022-12-03T19:07:36.438Z,120.97
2022-12-03T19:10:03.075Z,111.70
2022-12-03T19:12:31.036Z,114.15
2022-12-03T19:14:57.426Z,111.55
2022-12-03T19:17:23.882Z,114.03
2022-12-03T19:19:50.228Z,117.28
2022-12-03T19:22:16.644Z,112.35
2022-12-03T19:24:43.686Z,109.03
2022-12-03T19:27:10.101Z,106.20
2022-12-03T19:29:36.614Z,110.10
2022-12-03T19:32:03.218Z,108.22
2022-12-03T19:34:29.799Z,107.47
2022-12-03T19:36:56.283Z,107.22
2022-12-03T19:39:22.666Z,105.07
2022-12-03T19:41:49.112Z,107.78
2022-12-03T19:44:16.625Z,106.65
2022-12-03T19:46:43.775Z,112.63
2022-12-03T19:49:12.427Z,111.53
2022-12-03T19:51:38.841Z,108.55
2022-12-03T19:54:06.548Z,105.75
2022-12-03T19:56:33.177Z,97.50
2022-12-03T19:58:59.636Z,106.97
2022-12-03T20:01:30.289Z,113.10
2022-12-03T20:03:58.308Z,101.28
2022-12-03T20:06:27.054Z,100.60
2022-12-03T20:08:58.125Z,109.18
2022-12-03T20:11:30.523Z,100.25
2022-12-03T20:14:01.298Z,103.88
2022-12-03T20:16:29.232Z,103.95
2022-12-03T20:18:58.377Z,102.60
2022-12-03T20:21:24.892Z,98.82
2022-12-03T20:23:51.278Z,98.75
2022-12-03T20:26:19.586Z,103.05
2022-12-03T20:28:48.051Z,106.75
2022-12-03T20:31:17.874Z,109.82
2022-12-03T20:33:46.710Z,99.35
2022-12-03T20:36:14.731Z,94.75
2022-12-03T20:38:41.603Z,100.85
2022-12-03T20:41:16.652Z,100.15
2022-12-03T20:43:43.190Z,100.22
2022-12-03T20:46:12.223Z,94.20
2022-12-03T20:48:38.889Z,92.03
2022-12-03T20:51:07.534Z,97.28
2022-12-03T20:53:34.216Z,91.18
2022-12-03T20:56:01.262Z,92.53
2022-12-03T20:58:28.536Z,93.63
2022-12-03T21:00:55.284Z,100.47
2022-12-03T21:03:21.976Z,96.10
2022-12-03T21:05:48.391Z,90.35
2022-12-03T21:08:14.957Z,89.05
2022-12-03T21:10:47.460Z,91.82
2022-12-03T21:15:41.912Z,99.00
2022-12-03T21:18:10.249Z,91.43
2022-12-03T21:20:44.011Z,93.72
2022-12-03T21:23:10.592Z,91.03
2022-12-03T21:25:37.442Z,97.20
2022-12-03T21:28:05.942Z,90.82
2022-12-03T21:30:32.582Z,88.45
2022-12-03T21:32:59.014Z,87.95
2022-12-03T21:35:25.501Z,89.70
2022-12-03T21:37:51.897Z,88.97
2022-12-03T21:40:19.511Z,89.60
2022-12-03T21:42:46.089Z,89.22
2022-12-03T21:45:12.673Z,86.50
2022-12-03T21:47:39.109Z,91.53
2022-12-03T21:50:07.575Z,86.25
2022-12-03T21:52:34.770Z,87.32
2022-12-03T21:55:01.148Z,85.07
2022-12-03T21:57:27.554Z,88.40
2022-12-03T21:59:55.573Z,84.50
2022-12-03T22:02:22.231Z,89.22
2022-12-03T22:04:51.789Z,85.38
2022-12-03T22:07:18.227Z,85.18
2022-12-03T22:09:44.717Z,87.75
2022-12-03T22:12:11.090Z,83.05
2022-12-03T22:14:37.437Z,85.57
2022-12-03T22:17:03.929Z,85.47
2022-12-03T22:19:30.307Z,81.47
2022-12-03T22:21:56.744Z,82.47
2022-12-03T22:24:23.941Z,83.07
2022-12-03T22:26:52.085Z,83.22
2022-12-03T22:29:18.612Z,86.65
2022-12-03T22:31:45.015Z,85.03
2022-12-03T22:34:11.519Z,89.88
2022-12-03T22:36:37.993Z,86.78
2022-12-03T22:39:04.638Z,90.10
2022-12-03T22:41:31.081Z,89.45
2022-12-03T22:43:57.589Z,89.97
2022-12-03T22:46:24.266Z,89.47
2022-12-03T22:48:50.680Z,88.82
2022-12-03T22:51:22.372Z,84.55
2022-12-03T22:53:56.792Z,87.47
2022-12-03T22:56:23.811Z,89.93
2022-12-03T22:58:50.493Z,85.68
2022-12-03T23:01:29.990Z,86.22
2022-12-03T23:03:56.735Z,88.53
2022-12-03T23:06:23.606Z,87.93
2022-12-03T23:08:50.476Z,86.70
2022-12-03T23:11:17.397Z,89.07
2022-12-03T23:13:43.773Z,83.22
2022-12-03T23:16:20.672Z,88.25
2022-12-03T23:18:47.091Z,85.93
2022-12-03T23:21:18.180Z,88.90
2022-12-03T23:23:44.733Z,86.47
2022-12-03T23:26:13.228Z,90.22
2022-12-03T23:28:41.986Z,82.47
2022-12-03T23:31:22.886Z,85.10
2022-12-03T23:33:50.129Z,86.35
2022-12-03T23:36:17.091Z,88.25
2022-12-03T23:38:43.865Z,87.97
2022-12-03T23:41:16.007Z,90.28
2022-12-03T23:43:42.627Z,85.15
2022-12-03T23:46:14.616Z,89.40
2022-12-03T23:48:41.924Z,82.38
2022-12-03T23:51:11.079Z,90.72
2022-12-03T23:53:38.202Z,90.20
2022-12-03T23:56:09.649Z,88.90
2022-12-03T23:58:36.081Z,90.07
